createdAt,value
2022-12-17T00:01:42.229Z,104.60
2022-12-17T00:04:27.672Z,100.83
2022-12-17T00:07:13.498Z,95.73
2022-12-17T00:09:59.474Z,92.47
2022-12-17T00:12:45.405Z,85.17
2022-12-17T00:15:31.510Z,89.70
2022-12-17T00:18:24.413Z,82.37
2022-12-17T00:21:17.592Z,82.83
2022-12-17T00:24:03.444Z,77.47
2022-12-17T00:26:49.451Z,91.47
2022-12-17T00:29:35.441Z,80.03
2022-12-17T00:32:21.189Z,92.27
2022-12-17T00:35:06.981Z,84.90
2022-12-17T00:37:52.862Z,93.73
2022-12-17T00:40:38.142Z,94.37
2022-12-17T00:43:31.212Z,90.23
2022-12-17T00:46:17.086Z,83.37
2022-12-17T00:49:02.825Z,95.07
2022-12-17T00:51:48.715Z,64.07
2022-12-17T00:54:34.607Z,74.37
2022-12-17T00:57:20.579Z,71.73
2022-12-17T01:00:06.538Z,68.37
2022-12-17T01:02:52.590Z,60.50
2022-12-17T01:05:38.374Z,70.67
2022-12-17T01:08:32.088Z,68.03
2022-12-17T01:11:21.574Z,64.10
2022-12-17T01:14:07.661Z,73.37
2022-12-17T01:16:53.689Z,68.77
2022-12-17T01:19:42.261Z,61.73
2022-12-17T01:22:28.220Z,60.63
2022-12-17T01:25:14.181Z,65.73
2022-12-17T01:28:00.113Z,64.10
2022-12-17T01:30:46.186Z,64.33
2022-12-17T01:33:31.730Z,60.90
2022-12-17T01:36:17.687Z,69.97
2022-12-17T01:39:03.760Z,63.00
2022-12-17T01:41:49.441Z,68.97
2022-12-17T01:45:06.499Z,69.50
2022-12-17T01:48:08.390Z,73.33
2022-12-17T01:50:57.806Z,67.87
2022-12-17T01:53:45.679Z,68.53
2022-12-17T01:56:31.647Z,70.20
2022-12-17T01:59:17.740Z,67.53
2022-12-17T02:02:03.352Z,65.70
2022-12-17T02:04:50.019Z,77.67
2022-12-17T02:07:35.852Z,69.37
2022-12-17T02:10:34.063Z,82.93
2022-12-17T02:13:31.670Z,58.10
2022-12-17T02:16:26.202Z,69.70
2022-12-17T02:19:18.354Z,68.73
2022-12-17T02:22:04.790Z,62.47
2022-12-17T02:25:19.486Z,69.37
2022-12-17T02:28:05.377Z,65.23
2022-12-17T02:30:51.021Z,62.67
2022-12-17T02:33:36.929Z,58.00
2022-12-17T02:36:26.551Z,70.93
2022-12-17T02:39:12.588Z,64.07
2022-12-17T02:42:07.056Z,71.97
2022-12-17T02:44:54.102Z,58.73
2022-12-17T02:47:41.949Z,57.07
2022-12-17T02:50:28.929Z,60.07
2022-12-17T02:53:17.463Z,64.97
2022-12-17T02:56:05.561Z,54.83
2022-12-17T02:58:51.454Z,45.27
2022-12-17T03:01:37.644Z,55.27
2022-12-17T03:04:23.412Z,57.03
2022-12-17T03:07:09.438Z,50.77
2022-12-17T03:09:55.077Z,70.67
2022-12-17T03:12:40.986Z,55.27
2022-12-17T03:15:26.535Z,60.17
2022-12-17T03:18:13.604Z,54.13
2022-12-17T03:20:59.532Z,52.17
2022-12-17T03:23:45.654Z,51.53
2022-12-17T03:26:31.580Z,55.63
2022-12-17T03:29:17.401Z,61.03
2022-12-17T03:32:03.411Z,55.23
2022-12-17T03:34:49.304Z,58.50
2022-12-17T03:37:35.285Z,56.00
2022-12-17T03:40:21.167Z,63.67
2022-12-17T03:43:07.020Z,67.83
2022-12-17T03:45:52.938Z,55.80
2022-12-17T03:48:38.509Z,58.53
2022-12-17T03:51:24.567Z,59.07
2022-12-17T03:54:10.509Z,64.60
2022-12-17T03:56:56.523Z,56.33
2022-12-17T03:59:42.385Z,62.40
2022-12-17T04:02:39.241Z,57.23
2022-12-17T04:05:25.456Z,50.57
2022-12-17T04:08:11.539Z,62.83
2022-12-17T04:10:57.509Z,60.73
2022-12-17T04:13:43.875Z,53.63
2022-12-17T04:16:43.473Z,61.10
2022-12-17T04:19:29.288Z,71.80
2022-12-17T04:22:15.235Z,60.57
2022-12-17T04:25:01.121Z,58.63
2022-12-17T04:27:47.118Z,59.07
2022-12-17T04:30:33.111Z,55.90
2022-12-17T04:33:19.066Z,54.90
2022-12-17T04:36:05.032Z,52.13
2022-12-17T04:38:51.879Z,61.57
2022-12-17T04:41:37.472Z,53.73
2022-12-17T04:44:23.471Z,59.90
2022-12-17T04:47:09.454Z,50.30
2022-12-17T04:49:56.020Z,81.07
2022-12-17T04:52:41.954Z,52.60
2022-12-17T04:55:27.551Z,58.03
2022-12-17T04:58:24.249Z,49.67
2022-12-17T05:01:13.271Z,58.67
2022-12-17T05:03:59.315Z,61.37
2022-12-17T05:06:44.642Z,59.73
2022-12-17T05:09:30.578Z,62.80
2022-12-17T05:12:16.525Z,69.83
2022-12-17T05:15:02.405Z,64.07
2022-12-17T05:17:48.454Z,57.73
2022-12-17T05:20:34.366Z,70.83
2022-12-17T05:23:27.055Z,62.90
2022-12-17T05:26:19.274Z,61.70
2022-12-17T05:29:05.249Z,68.63
2022-12-17T05:31:51.062Z,61.83
2022-12-17T05:34:36.949Z,59.33
2022-12-17T05:37:23.108Z,76.23
2022-12-17T05:40:12.539Z,53.67
2022-12-17T05:42:58.811Z,58.70
2022-12-17T05:45:44.732Z,59.43
2022-12-17T05:48:30.755Z,61.00
2022-12-17T05:51:16.556Z,61.83
2022-12-17T05:54:02.387Z,64.33
2022-12-17T05:56:48.525Z,57.87
2022-12-17T05:59:34.488Z,64.37
2022-12-17T06:02:20.392Z,75.20
2022-12-17T06:05:06.322Z,67.80
2022-12-17T06:07:52.188Z,99.33
2022-12-17T06:10:38.326Z,103.20
2022-12-17T06:13:24.132Z,129.83
2022-12-17T06:16:09.675Z,104.13
2022-12-17T06:18:55.800Z,91.60
2022-12-17T06:21:41.216Z,99.63
2022-12-17T06:24:27.306Z,102.20
2022-12-17T06:27:29.921Z,104.40
2022-12-17T06:30:18.670Z,83.10
2022-12-17T06:33:05.171Z,92.40
2022-12-17T06:35:50.618Z,88.93
2022-12-17T06:38:36.520Z,92.97
2022-12-17T06:41:22.398Z,85.33
2022-12-17T06:44:08.980Z,98.33
2022-12-17T06:46:55.002Z,76.57
2022-12-17T06:49:41.868Z,86.93
2022-12-17T06:52:27.817Z,74.90
2022-12-17T06:55:13.523Z,84.00
2022-12-17T06:57:59.632Z,83.77
2022-12-17T07:00:45.540Z,84.20
2022-12-17T07:03:31.284Z,98.20
2022-12-17T07:06:19.715Z,77.57
2022-12-17T07:09:05.647Z,89.10
2022-12-17T07:11:51.575Z,73.40
2022-12-17T07:14:37.488Z,71.43
2022-12-17T07:17:23.383Z,78.90
2022-12-17T07:20:09.591Z,82.47
2022-12-17T07:22:55.473Z,91.80
2022-12-17T07:25:45.784Z,87.17
2022-12-17T07:28:32.072Z,67.67
2022-12-17T07:31:18.130Z,90.17
2022-12-17T07:34:04.075Z,83.97
2022-12-17T07:36:49.981Z,59.23
2022-12-17T07:39:35.913Z,81.00
2022-12-17T07:42:21.840Z,73.63
2022-12-17T07:47:44.219Z,90.83
2022-12-17T07:50:30.127Z,84.77
2022-12-17T07:53:22.760Z,82.27
2022-12-17T07:56:08.562Z,79.70
2022-12-17T07:58:54.641Z,64.13
